Odenburg, Louisiana
Current Conditions -  °F | °C
As of 9:15 AM on Wednesday 22 Oct 2014 (Local Time) from KHZR Reporting Station
Clear Clear  
Wind Chill: 19°   Ceiling: Unl
Heat Index: 19°   Visibility: 10mi
Dew Point: 12°   Wind: 8mph
Humidity: 65%   Direction: 60°ENE
Pressure: 30.11"   Gusts: NA
Location:  30.9317°N, 91.8606°W
Report Text: KHZR 221415Z AUTO 06007KT 10SM CLR 19/12 A3011 RMK AO2 T01920124
Loading
Personal Weather Stations






























Interactive Weather Map
Tropical Storm Tracking
New forecast layout! Learn more

10-Day Weather Forecast

Advertisements
Track Severe Weather on mobile